createdAt,value
2022-10-22T00:01:12.374Z,33.38
2022-10-22T00:03:39.955Z,31.98
2022-10-22T00:06:09.133Z,29.95
2022-10-22T00:08:36.843Z,34.10
2022-10-22T00:11:10.184Z,31.95
2022-10-22T00:13:37.774Z,30.52
2022-10-22T00:16:05.717Z,30.95
2022-10-22T00:18:33.267Z,30.42
2022-10-22T00:21:00.807Z,29.58
2022-10-22T00:23:29.743Z,29.65
2022-10-22T00:25:57.304Z,27.83
2022-10-22T00:28:25.432Z,32.67
2022-10-22T00:30:57.783Z,30.48
2022-10-22T00:33:25.785Z,30.80
2022-10-22T00:35:53.304Z,29.08
2022-10-22T00:38:21.010Z,30.05
2022-10-22T00:40:50.131Z,29.98
2022-10-22T00:43:20.236Z,29.27
2022-10-22T00:45:48.262Z,29.50
2022-10-22T00:48:18.445Z,30.67
2022-10-22T00:50:51.363Z,29.92
2022-10-22T00:53:23.483Z,28.67
2022-10-22T00:55:55.104Z,28.88
2022-10-22T00:58:26.392Z,27.67
2022-10-22T01:00:54.601Z,30.50
2022-10-22T01:03:22.737Z,31.80
2022-10-22T01:05:56.894Z,34.10
2022-10-22T01:08:30.052Z,35.35
2022-10-22T01:11:08.925Z,33.95
2022-10-22T01:13:50.382Z,37.95
2022-10-22T01:16:22.707Z,33.92
2022-10-22T01:18:58.808Z,34.20
2022-10-22T01:21:33.813Z,36.28
2022-10-22T01:24:31.741Z,40.28
2022-10-22T01:27:12.087Z,35.65
2022-10-22T01:29:45.161Z,37.58
2022-10-22T01:32:17.550Z,39.97
2022-10-22T01:34:49.611Z,33.78
2022-10-22T01:37:19.501Z,31.17
2022-10-22T01:39:49.117Z,35.88
2022-10-22T01:42:16.665Z,39.80
2022-10-22T01:44:46.502Z,40.50
2022-10-22T01:47:28.632Z,39.92
2022-10-22T01:50:24.808Z,31.08
2022-10-22T01:53:07.965Z,31.00
2022-10-22T01:55:44.576Z,31.58
2022-10-22T01:58:23.658Z,31.92
2022-10-22T02:01:01.362Z,30.15
2022-10-22T02:03:37.772Z,31.50
2022-10-22T02:06:12.117Z,41.22
2022-10-22T02:08:40.357Z,33.60
2022-10-22T02:11:08.558Z,32.05
2022-10-22T02:13:42.454Z,29.67
2022-10-22T02:16:17.123Z,32.40
2022-10-22T02:18:47.727Z,35.33
2022-10-22T02:21:15.734Z,37.00
2022-10-22T02:23:43.332Z,29.10
2022-10-22T02:26:17.314Z,36.60
2022-10-22T02:28:50.863Z,35.63
2022-10-22T02:31:25.304Z,37.97
2022-10-22T02:33:56.737Z,30.42
2022-10-22T02:36:25.709Z,37.20
2022-10-22T02:38:53.792Z,40.83
2022-10-22T02:41:21.339Z,43.05
2022-10-22T02:43:51.787Z,38.88
2022-10-22T02:46:20.893Z,31.80
2022-10-22T02:48:48.513Z,42.40
2022-10-22T02:51:16.441Z,34.28
2022-10-22T02:53:43.955Z,39.08
2022-10-22T02:56:12.535Z,39.78
2022-10-22T02:58:40.051Z,28.52
2022-10-22T03:01:09.435Z,36.95
2022-10-22T03:03:40.177Z,24.58
2022-10-22T03:06:08.473Z,26.38
2022-10-22T03:08:35.991Z,38.30
2022-10-22T03:11:03.570Z,33.65
2022-10-22T03:13:31.083Z,33.53
2022-10-22T03:15:58.591Z,48.13
2022-10-22T03:18:26.119Z,32.78
2022-10-22T03:21:05.650Z,63.85
2022-10-22T03:23:33.708Z,73.80
2022-10-22T03:26:01.327Z,61.05
2022-10-22T03:28:28.982Z,61.90
2022-10-22T03:30:56.496Z,77.88
2022-10-22T03:33:24.107Z,61.05
2022-10-22T03:35:51.687Z,47.17
2022-10-22T03:38:20.691Z,31.00
2022-10-22T03:40:48.467Z,34.55
2022-10-22T03:43:16.439Z,42.30
2022-10-22T03:45:43.928Z,43.03
2022-10-22T03:48:11.444Z,45.28
2022-10-22T03:50:38.964Z,58.90
2022-10-22T03:53:07.140Z,65.28
2022-10-22T03:55:36.012Z,73.18
2022-10-22T03:58:03.523Z,76.00
2022-10-22T04:00:31.043Z,78.63
2022-10-22T04:02:58.741Z,83.32
2022-10-22T04:05:26.277Z,81.40
2022-10-22T04:07:53.844Z,70.47
2022-10-22T04:10:21.572Z,54.17
2022-10-22T04:12:50.538Z,49.13
2022-10-22T04:15:18.720Z,50.78
2022-10-22T04:17:46.223Z,44.85
2022-10-22T04:20:13.732Z,40.92
2022-10-22T04:22:41.255Z,34.85
2022-10-22T04:25:09.310Z,34.90
2022-10-22T04:27:37.523Z,33.55
2022-10-22T04:30:07.884Z,35.10
2022-10-22T04:32:35.456Z,49.70
2022-10-22T04:35:02.962Z,58.33
2022-10-22T04:37:30.487Z,62.25
2022-10-22T04:39:58.410Z,40.03
2022-10-22T04:42:26.123Z,35.45
2022-10-22T04:44:53.615Z,34.85
2022-10-22T04:47:22.532Z,39.88
2022-10-22T04:49:50.049Z,39.47
2022-10-22T04:52:17.588Z,38.63
2022-10-22T04:54:45.097Z,32.15
2022-10-22T04:57:12.604Z,47.67
2022-10-22T04:59:40.152Z,70.13
2022-10-22T05:02:07.697Z,66.85
2022-10-22T05:04:36.567Z,70.93
2022-10-22T05:07:04.083Z,82.35
2022-10-22T05:09:31.605Z,78.13
2022-10-22T05:11:59.133Z,66.53
2022-10-22T05:14:27.324Z,66.22
2022-10-22T05:16:55.179Z,55.97
2022-10-22T05:19:25.268Z,57.08
2022-10-22T05:21:55.921Z,61.13
2022-10-22T05:24:23.654Z,60.72
2022-10-22T05:26:51.703Z,51.40
2022-10-22T05:29:19.376Z,53.80
2022-10-22T05:31:47.182Z,47.13
2022-10-22T05:34:15.121Z,49.40
2022-10-22T05:36:43.046Z,55.47
2022-10-22T05:39:12.251Z,55.72
2022-10-22T05:41:39.761Z,54.10
2022-10-22T05:44:07.334Z,51.13
2022-10-22T05:46:36.755Z,49.40
2022-10-22T05:49:06.220Z,59.88
2022-10-22T05:51:35.923Z,53.60
2022-10-22T05:54:05.934Z,48.38
2022-10-22T05:56:36.681Z,40.05
2022-10-22T05:59:04.410Z,45.38
2022-10-22T06:01:35.194Z,48.90
2022-10-22T06:04:05.657Z,56.08
2022-10-22T06:06:35.389Z,55.08
2022-10-22T06:09:06.351Z,65.30
2022-10-22T06:11:35.537Z,79.22
2022-10-22T06:14:03.088Z,69.63
2022-10-22T06:16:31.052Z,65.35
2022-10-22T06:19:00.366Z,69.57
2022-10-22T06:21:27.924Z,63.13
2022-10-22T06:23:57.452Z,58.28
2022-10-22T06:26:25.128Z,55.42
2022-10-22T06:28:54.267Z,47.70
2022-10-22T06:31:21.807Z,47.50
2022-10-22T06:33:49.353Z,53.95
2022-10-22T06:36:20.299Z,46.95
2022-10-22T06:38:48.411Z,39.33
2022-10-22T06:41:17.471Z,57.10
2022-10-22T06:43:46.796Z,42.67
2022-10-22T06:46:19.975Z,43.78
2022-10-22T06:48:51.019Z,40.63
2022-10-22T06:51:18.991Z,45.67
2022-10-22T06:53:46.582Z,55.95
2022-10-22T06:56:15.569Z,50.88
2022-10-22T06:58:43.139Z,48.85
2022-10-22T07:01:13.990Z,53.22
2022-10-22T07:03:43.327Z,55.55
2022-10-22T07:06:12.717Z,54.53
2022-10-22T07:08:41.164Z,50.60
2022-10-22T07:11:10.921Z,59.15
2022-10-22T07:13:38.696Z,56.58
2022-10-22T07:16:08.140Z,51.42
2022-10-22T07:18:36.686Z,45.05
2022-10-22T07:21:06.889Z,42.13
2022-10-22T07:23:34.662Z,32.92
2022-10-22T07:26:03.344Z,42.17
2022-10-22T07:28:32.506Z,40.40
2022-10-22T07:31:00.111Z,43.53
2022-10-22T07:33:28.274Z,38.05
2022-10-22T07:35:58.963Z,38.85
2022-10-22T07:38:28.032Z,40.38
2022-10-22T07:40:55.588Z,35.33
2022-10-22T07:43:23.263Z,30.88
2022-10-22T07:45:51.064Z,33.83
2022-10-22T07:48:18.627Z,38.08
2022-10-22T07:50:46.140Z,34.28
2022-10-22T07:53:13.704Z,34.00
2022-10-22T07:55:42.560Z,36.65
2022-10-22T07:58:10.088Z,41.67
2022-10-22T08:00:37.631Z,32.67
2022-10-22T08:03:05.363Z,34.00
2022-10-22T08:05:32.887Z,36.60
2022-10-22T08:08:00.394Z,36.95
2022-10-22T08:10:27.903Z,30.45
2022-10-22T08:12:57.152Z,33.67
2022-10-22T08:15:25.564Z,30.00
2022-10-22T08:17:53.107Z,38.35
2022-10-22T08:20:21.257Z,37.97
2022-10-22T08:22:48.776Z,36.58
2022-10-22T08:25:18.001Z,28.77
2022-10-22T08:27:46.374Z,37.60
2022-10-22T08:30:15.651Z,46.47
2022-10-22T08:32:43.541Z,37.55
2022-10-22T08:35:14.146Z,41.65
2022-10-22T08:37:44.492Z,25.90
2022-10-22T08:40:20.605Z,23.95
2022-10-22T08:43:31.220Z,17.00
2022-10-22T08:46:11.929Z,24.05
2022-10-22T08:48:46.711Z,15.90
2022-10-22T08:51:17.513Z,16.85
2022-10-22T08:53:59.543Z,22.90
2022-10-22T08:56:27.726Z,25.15
2022-10-22T08:59:02.013Z,26.17
2022-10-22T09:01:36.425Z,29.42
2022-10-22T09:04:11.853Z,29.75
2022-10-22T09:06:44.158Z,21.85
2022-10-22T09:09:15.902Z,20.10
2022-10-22T09:11:47.013Z,17.95
2022-10-22T09:14:17.490Z,18.13
2022-10-22T09:17:02.231Z,17.27
2022-10-22T09:19:37.562Z,17.40
2022-10-22T09:22:17.652Z,18.35
2022-10-22T09:24:47.577Z,27.73
2022-10-22T09:27:17.608Z,24.83
2022-10-22T09:29:46.764Z,30.85
2022-10-22T09:32:16.540Z,25.42
2022-10-22T09:34:45.419Z,32.33
2022-10-22T09:37:13.225Z,36.20
2022-10-22T09:39:45.066Z,27.30
2022-10-22T09:42:15.514Z,39.33
2022-10-22T09:44:46.315Z,41.55
2022-10-22T09:47:42.649Z,29.95
2022-10-22T09:50:27.545Z,27.02
2022-10-22T09:53:05.314Z,28.50
2022-10-22T09:55:33.383Z,29.77
2022-10-22T09:58:01.709Z,19.90
2022-10-22T10:00:31.309Z,22.17
2022-10-22T10:03:01.329Z,25.38
2022-10-22T10:05:31.987Z,24.83
2022-10-22T10:08:01.724Z,24.05
2022-10-22T10:10:36.001Z,33.05
2022-10-22T10:13:23.058Z,31.55
2022-10-22T10:15:57.025Z,31.23
2022-10-22T10:18:37.695Z,29.00
2022-10-22T10:23:58.425Z,38.20
2022-10-22T10:26:32.811Z,31.90
2022-10-22T10:29:15.174Z,21.73
2022-10-22T10:31:56.524Z,22.60
2022-10-22T10:34:38.985Z,33.00
2022-10-22T10:37:19.334Z,14.07
2022-10-22T10:39:59.988Z,11.80
2022-10-22T10:42:34.938Z,13.40
2022-10-22T10:45:13.145Z,28.20
2022-10-22T10:48:19.526Z,35.50
2022-10-22T10:50:59.384Z,26.77
2022-10-22T10:53:42.876Z,26.70
2022-10-22T10:56:24.930Z,27.75
2022-10-22T10:59:01.875Z,17.55
2022-10-22T11:01:38.318Z,10.85
2022-10-22T11:04:24.653Z,12.95
2022-10-22T11:07:10.829Z,11.63
2022-10-22T11:09:44.173Z,54.33
2022-10-22T11:12:17.998Z,8.38
2022-10-22T11:14:56.671Z,24.48
2022-10-22T11:17:27.715Z,11.80
2022-10-22T11:20:01.913Z,58.35
2022-10-22T11:22:35.081Z,38.17
2022-10-22T11:25:06.859Z,3.83
2022-10-22T11:27:40.319Z,20.58
2022-10-22T11:30:14.768Z,3.05
2022-10-22T11:32:45.371Z,16.95
2022-10-22T11:35:16.957Z,31.77
2022-10-22T11:37:48.377Z,19.02
2022-10-22T11:40:19.730Z,39.22
2022-10-22T11:42:51.062Z,57.75
2022-10-22T11:45:31.428Z,51.67
2022-10-22T11:48:06.603Z,44.13
2022-10-22T11:50:50.787Z,64.57
2022-10-22T11:53:27.254Z,22.75
2022-10-22T11:55:57.508Z,27.20
2022-10-22T11:58:32.094Z,63.17
2022-10-22T12:01:19.696Z,22.00
2022-10-22T12:03:51.304Z,54.88
2022-10-22T12:06:22.199Z,28.27
2022-10-22T12:08:59.357Z,4.13
2022-10-22T12:11:28.784Z,16.65
2022-10-22T12:14:12.784Z,45.15
2022-10-22T12:16:55.818Z,8.68
2022-10-22T12:19:32.956Z,13.85
2022-10-22T12:22:07.288Z,33.15
2022-10-22T12:24:40.439Z,16.02
2022-10-22T12:27:21.636Z,53.35
2022-10-22T12:29:54.963Z,14.05
2022-10-22T12:32:22.603Z,8.40
2022-10-22T12:34:52.077Z,23.20
2022-10-22T12:37:20.501Z,12.48
2022-10-22T12:39:49.388Z,17.63
2022-10-22T12:42:18.807Z,30.67
2022-10-22T12:44:46.324Z,1.95
2022-10-22T12:47:17.564Z,2.03
2022-10-22T12:49:48.162Z,2.53
2022-10-22T12:52:19.207Z,4.20
2022-10-22T12:54:52.320Z,2.33
2022-10-22T12:57:21.121Z,5.90
2022-10-22T12:59:50.884Z,3.45
2022-10-22T13:02:22.588Z,2.45
2022-10-22T13:05:16.987Z,4.75
2022-10-22T13:07:48.568Z,2.63
2022-10-22T13:10:21.051Z,2.67
2022-10-22T13:12:54.960Z,2.35
2022-10-22T13:15:34.493Z,12.90
2022-10-22T13:18:15.737Z,7.95
2022-10-22T13:20:52.863Z,3.85
2022-10-22T13:23:22.285Z,21.80
2022-10-22T13:26:01.042Z,16.73
2022-10-22T13:28:30.091Z,8.25
2022-10-22T13:31:00.009Z,21.90
2022-10-22T13:33:31.394Z,9.27
2022-10-22T13:35:59.272Z,31.95
2022-10-22T13:38:28.388Z,24.13
2022-10-22T13:40:56.618Z,15.43
2022-10-22T13:43:26.093Z,24.77
2022-10-22T13:45:56.670Z,9.85
2022-10-22T13:48:26.414Z,21.50
2022-10-22T13:50:54.513Z,15.65
2022-10-22T13:53:24.943Z,21.23
2022-10-22T13:55:52.571Z,36.33
2022-10-22T13:58:23.827Z,26.95
2022-10-22T14:00:55.536Z,42.60
2022-10-22T14:03:27.187Z,33.85
2022-10-22T14:05:54.844Z,25.85
2022-10-22T14:08:24.145Z,18.48
2022-10-22T14:10:51.639Z,29.90
2022-10-22T14:13:20.621Z,4.85
2022-10-22T14:15:51.239Z,3.05
2022-10-22T14:18:25.349Z,3.63
2022-10-22T14:20:54.923Z,2.78
2022-10-22T14:23:24.344Z,3.03
2022-10-22T14:25:51.977Z,3.85
2022-10-22T14:28:19.912Z,2.08
2022-10-22T14:30:48.102Z,2.10
2022-10-22T14:33:18.196Z,2.15
2022-10-22T14:35:48.703Z,2.15
2022-10-22T14:38:16.596Z,3.10
2022-10-22T14:40:44.994Z,2.05
2022-10-22T14:43:13.799Z,2.38
2022-10-22T14:45:41.319Z,2.35
2022-10-22T14:48:09.222Z,2.95
2022-10-22T14:50:36.810Z,2.10
2022-10-22T14:53:05.905Z,2.00
2022-10-22T14:55:33.439Z,2.67
2022-10-22T14:58:00.989Z,2.72
2022-10-22T15:00:28.683Z,2.30
2022-10-22T15:02:56.667Z,2.17
2022-10-22T15:05:25.624Z,2.28
2022-10-22T15:07:53.120Z,2.38
2022-10-22T15:10:22.034Z,2.28
2022-10-22T15:12:49.542Z,2.08
2022-10-22T15:15:18.245Z,2.33
2022-10-22T15:17:48.139Z,2.15
2022-10-22T15:20:15.631Z,1.90
2022-10-22T15:22:43.442Z,1.92
2022-10-22T15:25:11.282Z,2.00
2022-10-22T15:27:40.170Z,1.95
2022-10-22T15:30:09.067Z,2.08
2022-10-22T15:32:36.591Z,2.00
2022-10-22T15:35:05.840Z,1.90
2022-10-22T15:37:33.365Z,1.95
2022-10-22T15:40:03.651Z,2.15
2022-10-22T15:42:31.228Z,2.15
2022-10-22T15:45:02.149Z,2.00
2022-10-22T15:47:31.149Z,3.90
2022-10-22T15:49:59.047Z,1.98
2022-10-22T15:52:26.598Z,1.95
2022-10-22T15:54:54.375Z,2.17
2022-10-22T15:57:21.946Z,3.33
2022-10-22T15:59:50.051Z,2.03
2022-10-22T16:02:18.945Z,2.65
2022-10-22T16:04:46.477Z,2.17
2022-10-22T16:07:13.995Z,2.92
2022-10-22T16:09:41.522Z,11.27
2022-10-22T16:12:09.749Z,11.10
2022-10-22T16:14:37.703Z,8.73
2022-10-22T16:17:05.237Z,19.55
2022-10-22T16:19:34.220Z,39.72
2022-10-22T16:22:03.291Z,38.72
2022-10-22T16:24:30.808Z,34.88
2022-10-22T16:26:58.595Z,24.13
2022-10-22T16:29:26.127Z,25.02
2022-10-22T16:31:53.630Z,21.48
2022-10-22T16:34:21.157Z,27.67
2022-10-22T16:39:24.381Z,26.23
2022-10-22T16:41:51.924Z,17.77
2022-10-22T16:44:19.433Z,13.02
2022-10-22T16:46:46.952Z,11.38
2022-10-22T16:49:14.504Z,14.23
2022-10-22T16:51:42.052Z,14.15
2022-10-22T16:54:13.072Z,12.90
2022-10-22T16:56:41.061Z,16.23
2022-10-22T16:59:08.619Z,17.60
2022-10-22T17:01:40.607Z,15.50
2022-10-22T17:04:08.816Z,16.02
2022-10-22T17:06:36.632Z,26.13
2022-10-22T17:09:05.159Z,37.95
2022-10-22T17:11:37.014Z,32.22
2022-10-22T17:14:07.459Z,25.45
2022-10-22T17:16:35.103Z,24.40
2022-10-22T17:19:04.595Z,23.00
2022-10-22T17:21:32.195Z,25.83
2022-10-22T17:23:59.743Z,25.63
2022-10-22T17:26:27.711Z,21.65
2022-10-22T17:28:56.927Z,16.35
2022-10-22T17:31:26.407Z,22.85
2022-10-22T17:33:55.886Z,17.88
2022-10-22T17:36:25.052Z,32.88
2022-10-22T17:38:55.175Z,28.23
2022-10-22T17:41:24.908Z,17.13
2022-10-22T17:43:52.689Z,25.65
2022-10-22T17:46:23.530Z,21.67
2022-10-22T17:48:52.594Z,22.50
2022-10-22T17:51:21.282Z,22.58
2022-10-22T17:53:50.158Z,28.73
2022-10-22T17:56:19.915Z,29.75
2022-10-22T17:58:47.652Z,27.60
2022-10-22T18:01:23.464Z,23.65
2022-10-22T18:03:51.137Z,33.53
2022-10-22T18:06:18.801Z,17.17
2022-10-22T18:08:46.632Z,13.77
2022-10-22T18:11:17.203Z,27.17
2022-10-22T18:13:44.920Z,17.02
2022-10-22T18:16:13.350Z,19.40
2022-10-22T18:18:42.283Z,21.23
2022-10-22T18:21:09.775Z,25.65
2022-10-22T18:23:37.695Z,34.92
2022-10-22T18:26:06.140Z,55.88
2022-10-22T18:28:33.942Z,54.22
2022-10-22T18:31:06.771Z,62.15
2022-10-22T18:33:35.213Z,63.83
2022-10-22T18:36:06.773Z,57.38
2022-10-22T18:38:34.612Z,42.67
2022-10-22T18:41:02.252Z,56.97
2022-10-22T18:43:29.769Z,57.08
2022-10-22T18:45:57.333Z,57.85
2022-10-22T18:48:24.868Z,45.83
2022-10-22T18:51:00.277Z,66.90
2022-10-22T18:53:29.536Z,65.18
2022-10-22T18:55:57.070Z,33.38
2022-10-22T18:58:24.627Z,30.98
2022-10-22T19:00:52.734Z,21.70
2022-10-22T19:03:20.294Z,42.53
2022-10-22T19:05:50.440Z,28.30
2022-10-22T19:08:18.636Z,34.28
2022-10-22T19:10:48.164Z,39.10
2022-10-22T19:13:16.892Z,39.03
2022-10-22T19:15:44.555Z,37.55
2022-10-22T19:18:15.009Z,41.20
2022-10-22T19:20:42.632Z,25.10
2022-10-22T19:23:10.140Z,54.92
2022-10-22T19:25:37.799Z,43.20
2022-10-22T19:28:06.952Z,45.30
2022-10-22T19:30:34.512Z,42.80
2022-10-22T19:33:02.027Z,50.53
2022-10-22T19:35:30.706Z,45.22
2022-10-22T19:37:58.225Z,42.25
2022-10-22T19:40:27.198Z,34.50
2022-10-22T19:42:54.873Z,26.00
2022-10-22T19:45:23.698Z,28.25
2022-10-22T19:47:51.214Z,40.67
2022-10-22T19:50:18.925Z,39.38
2022-10-22T19:52:46.457Z,49.83
2022-10-22T19:55:14.016Z,35.50
2022-10-22T19:57:41.749Z,37.88
2022-10-22T20:00:10.548Z,30.33
2022-10-22T20:02:39.517Z,30.13
2022-10-22T20:05:07.735Z,36.17
2022-10-22T20:07:35.273Z,36.42
2022-10-22T20:10:02.999Z,50.70
2022-10-22T20:12:30.503Z,37.78
2022-10-22T20:14:58.253Z,43.60
2022-10-22T20:17:25.727Z,45.72
2022-10-22T20:19:56.390Z,42.55
2022-10-22T20:22:23.927Z,41.20
2022-10-22T20:24:51.663Z,132.45
2022-10-22T20:27:19.232Z,55.35
2022-10-22T20:29:46.744Z,53.15
2022-10-22T20:32:14.308Z,54.90
2022-10-22T20:34:42.424Z,59.35
2022-10-22T20:37:11.362Z,55.25
2022-10-22T20:39:38.879Z,69.82
2022-10-22T20:42:06.466Z,52.25
2022-10-22T20:44:34.019Z,57.13
2022-10-22T20:47:01.708Z,71.53
2022-10-22T20:49:29.389Z,59.78
2022-10-22T20:51:56.900Z,61.70
2022-10-22T20:54:25.807Z,51.63
2022-10-22T20:56:53.548Z,64.88
2022-10-22T20:59:21.841Z,67.93
2022-10-22T21:01:50.922Z,58.25
2022-10-22T21:04:20.227Z,67.07
2022-10-22T21:06:50.081Z,58.78
2022-10-22T21:09:17.723Z,53.33
2022-10-22T21:11:47.156Z,57.55
2022-10-22T21:14:16.690Z,57.45
2022-10-22T21:16:46.430Z,46.35
2022-10-22T21:19:13.965Z,53.20
2022-10-22T21:21:41.785Z,50.22
2022-10-22T21:24:09.652Z,43.33
2022-10-22T21:26:37.750Z,42.88
2022-10-22T21:29:06.626Z,42.00
2022-10-22T21:31:34.455Z,45.38
2022-10-22T21:34:02.042Z,35.95
2022-10-22T21:36:29.548Z,77.82
2022-10-22T21:38:57.109Z,84.53
2022-10-22T21:41:25.332Z,35.22
2022-10-22T21:43:52.892Z,31.08
2022-10-22T21:46:23.428Z,32.28
2022-10-22T21:48:54.234Z,34.15
2022-10-22T21:51:23.444Z,37.45
2022-10-22T21:56:22.528Z,41.42
2022-10-22T21:58:50.175Z,38.50
2022-10-22T22:01:18.352Z,42.53
2022-10-22T22:03:49.108Z,39.50
2022-10-22T22:06:21.251Z,36.28
2022-10-22T22:08:49.811Z,54.22
2022-10-22T22:11:19.737Z,39.53
2022-10-22T22:13:48.617Z,56.58
2022-10-22T22:16:21.208Z,110.70
2022-10-22T22:18:53.011Z,155.82
2022-10-22T22:21:21.887Z,162.75
2022-10-22T22:23:50.574Z,149.40
2022-10-22T22:26:25.205Z,137.50
2022-10-22T22:28:56.386Z,150.65
2022-10-22T22:31:25.882Z,155.02
2022-10-22T22:33:58.943Z,164.20
2022-10-22T22:36:26.468Z,184.38
2022-10-22T22:38:55.188Z,168.13
2022-10-22T22:41:23.008Z,183.90
2022-10-22T22:43:50.583Z,169.48
2022-10-22T22:46:18.223Z,119.47
2022-10-22T22:48:47.937Z,42.42
2022-10-22T22:51:17.180Z,42.17
2022-10-22T22:53:45.860Z,91.97
2022-10-22T22:56:16.176Z,57.25
2022-10-22T22:58:44.445Z,69.35
2022-10-22T23:01:15.660Z,52.60
2022-10-22T23:03:44.174Z,35.88
2022-10-22T23:06:12.068Z,38.53
2022-10-22T23:08:41.421Z,41.17
2022-10-22T23:11:11.542Z,47.22
2022-10-22T23:13:39.736Z,38.35
2022-10-22T23:16:08.503Z,69.32
2022-10-22T23:18:36.726Z,61.60
2022-10-22T23:21:06.452Z,78.00
2022-10-22T23:23:34.545Z,64.57
2022-10-22T23:26:04.129Z,48.72
2022-10-22T23:28:31.778Z,59.35
2022-10-22T23:30:59.310Z,71.22
2022-10-22T23:33:27.335Z,81.78
2022-10-22T23:35:54.827Z,55.35
2022-10-22T23:38:22.399Z,54.17
2022-10-22T23:40:55.088Z,60.63
2022-10-22T23:43:24.020Z,63.92
2022-10-22T23:45:51.584Z,59.42
2022-10-22T23:48:19.517Z,47.65
2022-10-22T23:50:47.235Z,57.35
2022-10-22T23:53:14.821Z,63.95
2022-10-22T23:55:44.605Z,65.70
2022-10-22T23:58:12.891Z,51.05
